sensor_id;sensor_type;location;lat;lon;timestamp;temperature;humidity
22161;DHT22;49035;48.812;11.762;2023-08-30T00:00:10;12.60;99.90
22161;DHT22;49035;48.812;11.762;2023-08-30T00:02:36;12.60;99.90
22161;DHT22;49035;48.812;11.762;2023-08-30T00:05:05;12.60;99.90
22161;DHT22;49035;48.812;11.762;2023-08-30T00:07:30;12.60;99.90
22161;DHT22;49035;48.812;11.762;2023-08-30T00:09:57;12.60;99.90
22161;DHT22;49035;48.812;11.762;2023-08-30T00:12:24;12.60;99.90
22161;DHT22;49035;48.812;11.762;2023-08-30T00:14:50;12.60;99.90
22161;DHT22;49035;48.812;11.762;2023-08-30T00:17:16;12.50;99.90
22161;DHT22;49035;48.812;11.762;2023-08-30T00:19:42;12.50;99.90
22161;DHT22;49035;48.812;11.762;2023-08-30T00:22:07;12.40;99.90
22161;DHT22;49035;48.812;11.762;2023-08-30T00:24:34;12.50;99.90
22161;DHT22;49035;48.812;11.762;2023-08-30T00:27:01;12.40;99.90
22161;DHT22;49035;48.812;11.762;2023-08-30T00:29:26;12.40;99.90
22161;DHT22;49035;48.812;11.762;2023-08-30T00:31:52;12.40;99.90
22161;DHT22;49035;48.812;11.762;2023-08-30T00:34:17;12.40;99.90
22161;DHT22;49035;48.812;11.762;2023-08-30T00:36:43;12.50;99.90
22161;DHT22;49035;48.812;11.762;2023-08-30T00:39:08;12.40;99.90
22161;DHT22;49035;48.812;11.762;2023-08-30T00:41:34;12.40;99.90
22161;DHT22;49035;48.812;11.762;2023-08-30T00:44:00;12.50;99.90
22161;DHT22;49035;48.812;11.762;2023-08-30T00:46:26;12.50;99.90
22161;DHT22;49035;48.812;11.762;2023-08-30T00:48:52;12.50;99.90
22161;DHT22;49035;48.812;11.762;2023-08-30T00:51:18;12.40;99.90
22161;DHT22;49035;48.812;11.762;2023-08-30T00:53:44;12.50;99.90
22161;DHT22;49035;48.812;11.762;2023-08-30T00:56:10;12.40;99.90
22161;DHT22;49035;48.812;11.762;2023-08-30T00:58:36;12.40;99.90
22161;DHT22;49035;48.812;11.762;2023-08-30T01:01:03;12.40;99.90
22161;DHT22;49035;48.812;11.762;2023-08-30T01:03:29;12.30;99.90
22161;DHT22;49035;48.812;11.762;2023-08-30T01:05:55;12.30;99.90
22161;DHT22;49035;48.812;11.762;2023-08-30T01:08:21;12.40;99.90
22161;DHT22;49035;48.812;11.762;2023-08-30T01:11:10;12.30;99.90
22161;DHT22;49035;48.812;11.762;2023-08-30T01:13:42;12.30;99.90
22161;DHT22;49035;48.812;11.762;2023-08-30T01:16:09;12.30;99.90
22161;DHT22;49035;48.812;11.762;2023-08-30T01:18:36;12.30;99.90
22161;DHT22;49035;48.812;11.762;2023-08-30T01:21:05;12.30;99.90
22161;DHT22;49035;48.812;11.762;2023-08-30T01:23:40;12.30;99.90
22161;DHT22;49035;48.812;11.762;2023-08-30T01:26:09;12.30;99.90
22161;DHT22;49035;48.812;11.762;2023-08-30T01:28:37;12.30;99.90
22161;DHT22;49035;48.812;11.762;2023-08-30T01:31:03;12.40;99.90
22161;DHT22;49035;48.812;11.762;2023-08-30T01:33:31;12.40;99.90
22161;DHT22;49035;48.812;11.762;2023-08-30T01:35:59;12.40;99.90
22161;DHT22;49035;48.812;11.762;2023-08-30T01:38:29;12.30;99.90
22161;DHT22;49035;48.812;11.762;2023-08-30T01:40:56;12.40;99.90
22161;DHT22;49035;48.812;11.762;2023-08-30T01:43:24;12.40;99.90
22161;DHT22;49035;48.812;11.762;2023-08-30T01:45:51;12.40;99.90
22161;DHT22;49035;48.812;11.762;2023-08-30T01:48:18;12.40;99.90
22161;DHT22;49035;48.812;11.762;2023-08-30T01:50:45;12.40;99.90
22161;DHT22;49035;48.812;11.762;2023-08-30T01:53:13;12.40;99.90
22161;DHT22;49035;48.812;11.762;2023-08-30T01:55:39;12.40;99.90
22161;DHT22;49035;48.812;11.762;2023-08-30T01:58:05;12.40;99.90
22161;DHT22;49035;48.812;11.762;2023-08-30T02:00:31;12.30;99.90
22161;DHT22;49035;48.812;11.762;2023-08-30T02:02:57;12.30;99.90
22161;DHT22;49035;48.812;11.762;2023-08-30T02:05:22;12.30;99.90
22161;DHT22;49035;48.812;11.762;2023-08-30T02:07:57;12.30;99.90
22161;DHT22;49035;48.812;11.762;2023-08-30T02:10:28;12.30;99.90
22161;DHT22;49035;48.812;11.762;2023-08-30T02:12:57;12.30;99.90
22161;DHT22;49035;48.812;11.762;2023-08-30T02:15:25;12.30;99.90
22161;DHT22;49035;48.812;11.762;2023-08-30T02:17:52;12.30;99.90
22161;DHT22;49035;48.812;11.762;2023-08-30T02:20:19;12.30;99.90
22161;DHT22;49035;48.812;11.762;2023-08-30T02:22:44;12.30;99.90
22161;DHT22;49035;48.812;11.762;2023-08-30T02:25:10;12.30;99.90
22161;DHT22;49035;48.812;11.762;2023-08-30T02:27:36;12.20;99.90
22161;DHT22;49035;48.812;11.762;2023-08-30T02:30:02;12.20;99.90
22161;DHT22;49035;48.812;11.762;2023-08-30T02:32:28;12.20;99.90
22161;DHT22;49035;48.812;11.762;2023-08-30T02:34:55;12.20;99.90
22161;DHT22;49035;48.812;11.762;2023-08-30T02:37:21;12.10;99.90
22161;DHT22;49035;48.812;11.762;2023-08-30T02:39:47;12.10;99.90
22161;DHT22;49035;48.812;11.762;2023-08-30T02:42:12;12.10;99.90
22161;DHT22;49035;48.812;11.762;2023-08-30T02:44:38;12.00;99.90
22161;DHT22;49035;48.812;11.762;2023-08-30T02:47:04;12.00;99.90
22161;DHT22;49035;48.812;11.762;2023-08-30T02:49:29;12.00;99.90
22161;DHT22;49035;48.812;11.762;2023-08-30T02:51:55;12.00;99.90
22161;DHT22;49035;48.812;11.762;2023-08-30T02:54:20;12.00;99.90
22161;DHT22;49035;48.812;11.762;2023-08-30T02:56:47;12.00;99.90
22161;DHT22;49035;48.812;11.762;2023-08-30T02:59:13;12.00;99.90
22161;DHT22;49035;48.812;11.762;2023-08-30T03:01:38;11.90;99.90
22161;DHT22;49035;48.812;11.762;2023-08-30T03:04:05;11.90;99.90
22161;DHT22;49035;48.812;11.762;2023-08-30T03:06:33;11.90;99.90
22161;DHT22;49035;48.812;11.762;2023-08-30T03:08:58;11.90;99.90
22161;DHT22;49035;48.812;11.762;2023-08-30T03:11:24;11.90;99.90
22161;DHT22;49035;48.812;11.762;2023-08-30T03:13:50;11.80;99.90
22161;DHT22;49035;48.812;11.762;2023-08-30T03:16:16;11.80;99.90
22161;DHT22;49035;48.812;11.762;2023-08-30T03:18:43;11.70;99.90
22161;DHT22;49035;48.812;11.762;2023-08-30T03:21:09;11.70;99.90
22161;DHT22;49035;48.812;11.762;2023-08-30T03:23:35;11.60;99.90
22161;DHT22;49035;48.812;11.762;2023-08-30T03:26:11;11.60;99.90
22161;DHT22;49035;48.812;11.762;2023-08-30T03:28:38;11.60;99.90
22161;DHT22;49035;48.812;11.762;2023-08-30T03:31:19;11.60;99.90
22161;DHT22;49035;48.812;11.762;2023-08-30T03:33:45;11.60;99.90
22161;DHT22;49035;48.812;11.762;2023-08-30T03:36:12;11.50;99.90
22161;DHT22;49035;48.812;11.762;2023-08-30T03:38:38;11.40;99.90
22161;DHT22;49035;48.812;11.762;2023-08-30T03:41:04;11.30;99.90
22161;DHT22;49035;48.812;11.762;2023-08-30T03:43:31;11.30;99.90
22161;DHT22;49035;48.812;11.762;2023-08-30T03:45:57;11.20;99.90
22161;DHT22;49035;48.812;11.762;2023-08-30T03:48:23;11.20;99.90
22161;DHT22;49035;48.812;11.762;2023-08-30T03:50:49;11.20;99.90
22161;DHT22;49035;48.812;11.762;2023-08-30T03:53:14;11.20;99.90
22161;DHT22;49035;48.812;11.762;2023-08-30T03:55:40;11.20;99.90
22161;DHT22;49035;48.812;11.762;2023-08-30T03:58:06;11.20;99.90
22161;DHT22;49035;48.812;11.762;2023-08-30T04:00:32;11.20;99.90
22161;DHT22;49035;48.812;11.762;2023-08-30T04:02:57;11.20;99.90
22161;DHT22;49035;48.812;11.762;2023-08-30T04:05:23;11.30;99.90
22161;DHT22;49035;48.812;11.762;2023-08-30T04:07:48;11.30;99.90
22161;DHT22;49035;48.812;11.762;2023-08-30T04:10:14;11.40;99.90
22161;DHT22;49035;48.812;11.762;2023-08-30T04:12:39;11.40;99.90
22161;DHT22;49035;48.812;11.762;2023-08-30T04:15:05;11.50;99.90
22161;DHT22;49035;48.812;11.762;2023-08-30T04:17:31;11.60;99.90
22161;DHT22;49035;48.812;11.762;2023-08-30T04:19:56;11.70;99.90
22161;DHT22;49035;48.812;11.762;2023-08-30T04:22:22;11.80;99.90
22161;DHT22;49035;48.812;11.762;2023-08-30T04:24:48;11.90;99.90
22161;DHT22;49035;48.812;11.762;2023-08-30T04:27:14;12.00;99.90
22161;DHT22;49035;48.812;11.762;2023-08-30T04:29:40;12.10;99.90
22161;DHT22;49035;48.812;11.762;2023-08-30T04:32:10;12.10;99.90
22161;DHT22;49035;48.812;11.762;2023-08-30T04:34:35;12.10;99.90
22161;DHT22;49035;48.812;11.762;2023-08-30T04:37:01;12.20;99.90
22161;DHT22;49035;48.812;11.762;2023-08-30T04:39:27;12.20;99.90
22161;DHT22;49035;48.812;11.762;2023-08-30T04:41:53;12.20;99.90
22161;DHT22;49035;48.812;11.762;2023-08-30T04:44:19;12.30;99.90
22161;DHT22;49035;48.812;11.762;2023-08-30T04:46:49;12.30;99.90
22161;DHT22;49035;48.812;11.762;2023-08-30T04:49:15;12.30;99.90
22161;DHT22;49035;48.812;11.762;2023-08-30T04:51:40;12.40;99.90
22161;DHT22;49035;48.812;11.762;2023-08-30T04:54:06;12.40;99.90
22161;DHT22;49035;48.812;11.762;2023-08-30T04:56:31;12.40;99.90
22161;DHT22;49035;48.812;11.762;2023-08-30T04:58:57;12.50;99.90
22161;DHT22;49035;48.812;11.762;2023-08-30T05:01:22;12.60;99.90
22161;DHT22;49035;48.812;11.762;2023-08-30T05:03:48;12.60;99.90
22161;DHT22;49035;48.812;11.762;2023-08-30T05:06:14;12.60;99.90
22161;DHT22;49035;48.812;11.762;2023-08-30T05:08:41;12.60;99.90
22161;DHT22;49035;48.812;11.762;2023-08-30T05:11:07;12.60;99.90
22161;DHT22;49035;48.812;11.762;2023-08-30T05:13:33;12.60;99.90
22161;DHT22;49035;48.812;11.762;2023-08-30T05:15:58;12.60;99.90
22161;DHT22;49035;48.812;11.762;2023-08-30T05:18:24;12.60;99.90
22161;DHT22;49035;48.812;11.762;2023-08-30T05:20:49;12.60;99.90
22161;DHT22;49035;48.812;11.762;2023-08-30T05:23:15;12.70;99.90
22161;DHT22;49035;48.812;11.762;2023-08-30T05:25:40;12.70;99.90
22161;DHT22;49035;48.812;11.762;2023-08-30T05:28:06;12.70;99.90
22161;DHT22;49035;48.812;11.762;2023-08-30T05:30:32;12.80;99.90
22161;DHT22;49035;48.812;11.762;2023-08-30T05:32:57;12.80;99.90
22161;DHT22;49035;48.812;11.762;2023-08-30T05:35:23;12.90;99.90
22161;DHT22;49035;48.812;11.762;2023-08-30T05:37:48;12.90;99.90
22161;DHT22;49035;48.812;11.762;2023-08-30T05:40:14;12.90;99.90
22161;DHT22;49035;48.812;11.762;2023-08-30T05:42:42;13.00;99.90
22161;DHT22;49035;48.812;11.762;2023-08-30T05:45:08;13.00;99.90
22161;DHT22;49035;48.812;11.762;2023-08-30T05:47:34;13.10;99.90
22161;DHT22;49035;48.812;11.762;2023-08-30T05:49:59;13.20;99.90
22161;DHT22;49035;48.812;11.762;2023-08-30T05:52:25;13.20;99.90
22161;DHT22;49035;48.812;11.762;2023-08-30T05:54:51;13.30;99.90
22161;DHT22;49035;48.812;11.762;2023-08-30T05:57:16;13.40;99.90
22161;DHT22;49035;48.812;11.762;2023-08-30T05:59:42;13.50;99.90
22161;DHT22;49035;48.812;11.762;2023-08-30T06:02:07;13.60;99.90
22161;DHT22;49035;48.812;11.762;2023-08-30T06:04:33;13.70;99.90
22161;DHT22;49035;48.812;11.762;2023-08-30T06:06:59;13.80;99.90
22161;DHT22;49035;48.812;11.762;2023-08-30T06:09:24;13.90;99.90
22161;DHT22;49035;48.812;11.762;2023-08-30T06:11:50;14.00;99.90
22161;DHT22;49035;48.812;11.762;2023-08-30T06:14:15;14.10;99.90
22161;DHT22;49035;48.812;11.762;2023-08-30T06:16:41;14.20;99.90
22161;DHT22;49035;48.812;11.762;2023-08-30T06:19:10;14.20;99.90
22161;DHT22;49035;48.812;11.762;2023-08-30T06:21:36;14.20;99.90
22161;DHT22;49035;48.812;11.762;2023-08-30T06:24:01;14.20;99.90
22161;DHT22;49035;48.812;11.762;2023-08-30T06:26:27;14.20;99.90
22161;DHT22;49035;48.812;11.762;2023-08-30T06:28:52;14.30;99.90
22161;DHT22;49035;48.812;11.762;2023-08-30T06:31:18;14.30;99.90
22161;DHT22;49035;48.812;11.762;2023-08-30T06:33:44;14.40;99.90
22161;DHT22;49035;48.812;11.762;2023-08-30T06:36:09;14.50;99.90
22161;DHT22;49035;48.812;11.762;2023-08-30T06:38:37;14.60;99.90
22161;DHT22;49035;48.812;11.762;2023-08-30T06:41:02;14.90;99.90
22161;DHT22;49035;48.812;11.762;2023-08-30T06:43:28;15.00;99.90
22161;DHT22;49035;48.812;11.762;2023-08-30T06:45:53;14.90;99.90
22161;DHT22;49035;48.812;11.762;2023-08-30T06:48:22;15.00;99.90
22161;DHT22;49035;48.812;11.762;2023-08-30T06:50:48;15.10;99.90
22161;DHT22;49035;48.812;11.762;2023-08-30T06:53:13;15.20;99.90
22161;DHT22;49035;48.812;11.762;2023-08-30T06:55:39;15.40;99.90
22161;DHT22;49035;48.812;11.762;2023-08-30T06:58:05;15.70;99.90
22161;DHT22;49035;48.812;11.762;2023-08-30T07:00:30;15.90;99.90
22161;DHT22;49035;48.812;11.762;2023-08-30T07:02:56;16.00;99.90
22161;DHT22;49035;48.812;11.762;2023-08-30T07:05:22;16.00;99.90
22161;DHT22;49035;48.812;11.762;2023-08-30T07:07:48;16.10;99.90
22161;DHT22;49035;48.812;11.762;2023-08-30T07:10:14;16.10;99.90
22161;DHT22;49035;48.812;11.762;2023-08-30T07:12:40;16.20;99.90
22161;DHT22;49035;48.812;11.762;2023-08-30T07:15:05;16.30;99.90
22161;DHT22;49035;48.812;11.762;2023-08-30T07:17:31;16.50;99.90
22161;DHT22;49035;48.812;11.762;2023-08-30T07:19:57;16.60;99.90
22161;DHT22;49035;48.812;11.762;2023-08-30T07:22:22;16.90;99.90
22161;DHT22;49035;48.812;11.762;2023-08-30T07:24:48;17.10;99.90
22161;DHT22;49035;48.812;11.762;2023-08-30T07:27:13;17.20;99.90
22161;DHT22;49035;48.812;11.762;2023-08-30T07:29:39;17.10;99.90
22161;DHT22;49035;48.812;11.762;2023-08-30T07:32:06;17.40;99.90
22161;DHT22;49035;48.812;11.762;2023-08-30T07:34:32;17.40;99.90
22161;DHT22;49035;48.812;11.762;2023-08-30T07:36:58;17.50;99.90
22161;DHT22;49035;48.812;11.762;2023-08-30T07:39:23;17.40;99.90
22161;DHT22;49035;48.812;11.762;2023-08-30T07:41:49;17.30;99.90
22161;DHT22;49035;48.812;11.762;2023-08-30T07:44:14;17.40;99.90
22161;DHT22;49035;48.812;11.762;2023-08-30T07:46:40;17.50;99.90
22161;DHT22;49035;48.812;11.762;2023-08-30T07:49:06;17.60;99.90
22161;DHT22;49035;48.812;11.762;2023-08-30T07:51:31;17.70;99.90
22161;DHT22;49035;48.812;11.762;2023-08-30T07:53:57;17.60;99.90
22161;DHT22;49035;48.812;11.762;2023-08-30T07:56:23;17.60;99.90
22161;DHT22;49035;48.812;11.762;2023-08-30T07:58:48;17.60;99.90
22161;DHT22;49035;48.812;11.762;2023-08-30T08:01:14;17.60;99.90
22161;DHT22;49035;48.812;11.762;2023-08-30T08:03:39;17.40;99.90
22161;DHT22;49035;48.812;11.762;2023-08-30T08:06:06;17.50;99.90
22161;DHT22;49035;48.812;11.762;2023-08-30T08:08:32;18.00;99.90
22161;DHT22;49035;48.812;11.762;2023-08-30T08:10:59;18.40;99.90
22161;DHT22;49035;48.812;11.762;2023-08-30T08:13:25;18.30;99.90
22161;DHT22;49035;48.812;11.762;2023-08-30T08:15:51;18.40;99.90
22161;DHT22;49035;48.812;11.762;2023-08-30T08:18:16;18.90;99.90
22161;DHT22;49035;48.812;11.762;2023-08-30T08:20:42;19.20;99.90
22161;DHT22;49035;48.812;11.762;2023-08-30T08:23:08;19.80;99.90
22161;DHT22;49035;48.812;11.762;2023-08-30T08:25:34;20.30;99.90
22161;DHT22;49035;48.812;11.762;2023-08-30T08:27:59;20.60;99.90
22161;DHT22;49035;48.812;11.762;2023-08-30T08:30:25;20.60;99.90
22161;DHT22;49035;48.812;11.762;2023-08-30T08:32:50;20.70;99.90
22161;DHT22;49035;48.812;11.762;2023-08-30T08:35:16;20.10;99.90
22161;DHT22;49035;48.812;11.762;2023-08-30T08:37:42;19.70;99.90
22161;DHT22;49035;48.812;11.762;2023-08-30T08:40:08;19.00;99.90
22161;DHT22;49035;48.812;11.762;2023-08-30T08:42:37;18.80;99.90
22161;DHT22;49035;48.812;11.762;2023-08-30T08:45:03;19.20;99.90
22161;DHT22;49035;48.812;11.762;2023-08-30T08:47:33;19.80;99.90
22161;DHT22;49035;48.812;11.762;2023-08-30T08:49:59;20.20;99.90
22161;DHT22;49035;48.812;11.762;2023-08-30T08:52:30;20.90;99.90
22161;DHT22;49035;48.812;11.762;2023-08-30T08:54:57;21.30;99.90
22161;DHT22;49035;48.812;11.762;2023-08-30T08:57:23;20.70;99.90
22161;DHT22;49035;48.812;11.762;2023-08-30T08:59:49;20.60;99.90
22161;DHT22;49035;48.812;11.762;2023-08-30T09:02:15;20.80;99.90
22161;DHT22;49035;48.812;11.762;2023-08-30T09:04:41;21.10;99.90
22161;DHT22;49035;48.812;11.762;2023-08-30T09:07:07;21.40;99.90
22161;DHT22;49035;48.812;11.762;2023-08-30T09:09:36;21.50;99.90
22161;DHT22;49035;48.812;11.762;2023-08-30T09:12:02;21.70;99.90
22161;DHT22;49035;48.812;11.762;2023-08-30T09:14:28;22.10;99.90
22161;DHT22;49035;48.812;11.762;2023-08-30T09:16:58;22.70;99.90
22161;DHT22;49035;48.812;11.762;2023-08-30T09:19:24;22.60;99.90
22161;DHT22;49035;48.812;11.762;2023-08-30T09:21:54;22.30;99.90
22161;DHT22;49035;48.812;11.762;2023-08-30T09:24:19;22.40;99.90
22161;DHT22;49035;48.812;11.762;2023-08-30T09:26:50;22.20;99.90
22161;DHT22;49035;48.812;11.762;2023-08-30T09:29:17;22.10;99.90
22161;DHT22;49035;48.812;11.762;2023-08-30T09:31:43;22.30;99.90
22161;DHT22;49035;48.812;11.762;2023-08-30T09:34:09;22.60;99.90
22161;DHT22;49035;48.812;11.762;2023-08-30T09:36:38;22.60;99.90
22161;DHT22;49035;48.812;11.762;2023-08-30T09:39:10;22.40;99.90
22161;DHT22;49035;48.812;11.762;2023-08-30T09:41:37;22.30;98.10
22161;DHT22;49035;48.812;11.762;2023-08-30T09:44:23;21.70;99.80
22161;DHT22;49035;48.812;11.762;2023-08-30T09:46:54;21.30;99.90
22161;DHT22;49035;48.812;11.762;2023-08-30T09:49:24;21.30;99.90
22161;DHT22;49035;48.812;11.762;2023-08-30T09:51:51;21.30;99.90
22161;DHT22;49035;48.812;11.762;2023-08-30T09:54:24;21.20;99.90
22161;DHT22;49035;48.812;11.762;2023-08-30T09:56:51;21.70;99.90
22161;DHT22;49035;48.812;11.762;2023-08-30T09:59:18;22.20;99.90
22161;DHT22;49035;48.812;11.762;2023-08-30T10:01:46;22.20;99.90
22161;DHT22;49035;48.812;11.762;2023-08-30T10:04:12;22.10;99.90
22161;DHT22;49035;48.812;11.762;2023-08-30T10:06:38;21.60;98.70
22161;DHT22;49035;48.812;11.762;2023-08-30T10:09:05;21.20;99.90
22161;DHT22;49035;48.812;11.762;2023-08-30T10:11:34;21.30;99.90
22161;DHT22;49035;48.812;11.762;2023-08-30T10:14:00;21.90;99.90
22161;DHT22;49035;48.812;11.762;2023-08-30T10:16:27;22.50;99.90
22161;DHT22;49035;48.812;11.762;2023-08-30T10:19:02;22.50;98.30
22161;DHT22;49035;48.812;11.762;2023-08-30T10:21:29;22.70;99.90
22161;DHT22;49035;48.812;11.762;2023-08-30T10:23:55;21.90;98.50
22161;DHT22;49035;48.812;11.762;2023-08-30T10:26:24;21.40;99.90
22161;DHT22;49035;48.812;11.762;2023-08-30T10:28:55;21.60;99.60
22161;DHT22;49035;48.812;11.762;2023-08-30T10:31:22;21.90;99.90
22161;DHT22;49035;48.812;11.762;2023-08-30T10:33:53;22.10;99.90
22161;DHT22;49035;48.812;11.762;2023-08-30T10:36:26;22.30;99.90
22161;DHT22;49035;48.812;11.762;2023-08-30T10:38:53;22.10;99.00
22161;DHT22;49035;48.812;11.762;2023-08-30T10:41:24;22.10;96.20
22161;DHT22;49035;48.812;11.762;2023-08-30T10:43:51;21.70;98.00
22161;DHT22;49035;48.812;11.762;2023-08-30T10:46:17;21.20;99.90
22161;DHT22;49035;48.812;11.762;2023-08-30T10:48:53;21.70;97.50
22161;DHT22;49035;48.812;11.762;2023-08-30T10:51:21;21.80;97.70
22161;DHT22;49035;48.812;11.762;2023-08-30T10:53:59;21.70;98.90
22161;DHT22;49035;48.812;11.762;2023-08-30T10:56:29;22.10;99.90
22161;DHT22;49035;48.812;11.762;2023-08-30T10:58:55;22.30;98.20
22161;DHT22;49035;48.812;11.762;2023-08-30T11:01:21;22.30;96.70
22161;DHT22;49035;48.812;11.762;2023-08-30T11:03:47;21.90;97.30
22161;DHT22;49035;48.812;11.762;2023-08-30T11:06:14;21.10;97.50
22161;DHT22;49035;48.812;11.762;2023-08-30T11:08:41;20.50;99.70
22161;DHT22;49035;48.812;11.762;2023-08-30T11:11:07;20.10;99.90
22161;DHT22;49035;48.812;11.762;2023-08-30T11:13:34;20.00;99.90
22161;DHT22;49035;48.812;11.762;2023-08-30T11:16:03;20.20;99.90
22161;DHT22;49035;48.812;11.762;2023-08-30T11:18:49;20.80;99.90
22161;DHT22;49035;48.812;11.762;2023-08-30T11:21:14;21.00;98.10
22161;DHT22;49035;48.812;11.762;2023-08-30T11:23:40;20.90;99.20
22161;DHT22;49035;48.812;11.762;2023-08-30T11:26:07;20.30;99.10
22161;DHT22;49035;48.812;11.762;2023-08-30T11:28:32;20.20;99.90
22161;DHT22;49035;48.812;11.762;2023-08-30T11:30:58;20.30;99.50
22161;DHT22;49035;48.812;11.762;2023-08-30T11:33:24;20.30;97.90
22161;DHT22;49035;48.812;11.762;2023-08-30T11:35:51;20.20;99.90
22161;DHT22;49035;48.812;11.762;2023-08-30T11:38:18;20.50;99.90
22161;DHT22;49035;48.812;11.762;2023-08-30T11:40:44;20.80;98.40
22161;DHT22;49035;48.812;11.762;2023-08-30T11:43:10;21.40;98.00
22161;DHT22;49035;48.812;11.762;2023-08-30T11:45:36;21.70;97.60
22161;DHT22;49035;48.812;11.762;2023-08-30T11:48:01;22.20;96.20
22161;DHT22;49035;48.812;11.762;2023-08-30T11:50:28;21.80;94.10
22161;DHT22;49035;48.812;11.762;2023-08-30T11:52:54;21.90;95.70
22161;DHT22;49035;48.812;11.762;2023-08-30T11:55:21;22.40;94.30
22161;DHT22;49035;48.812;11.762;2023-08-30T11:57:50;22.80;92.10
22161;DHT22;49035;48.812;11.762;2023-08-30T12:00:18;22.30;92.10
22161;DHT22;49035;48.812;11.762;2023-08-30T12:02:45;22.40;94.80
22161;DHT22;49035;48.812;11.762;2023-08-30T12:05:15;23.00;94.20
22161;DHT22;49035;48.812;11.762;2023-08-30T12:07:41;23.00;91.30
22161;DHT22;49035;48.812;11.762;2023-08-30T12:10:11;23.10;93.50
22161;DHT22;49035;48.812;11.762;2023-08-30T12:12:37;23.80;91.70
22161;DHT22;49035;48.812;11.762;2023-08-30T12:15:13;24.20;91.80
22161;DHT22;49035;48.812;11.762;2023-08-30T12:17:39;24.10;85.70
22161;DHT22;49035;48.812;11.762;2023-08-30T12:20:05;23.30;90.70
22161;DHT22;49035;48.812;11.762;2023-08-30T12:22:41;22.80;90.00
22161;DHT22;49035;48.812;11.762;2023-08-30T12:25:20;22.80;92.10
22161;DHT22;49035;48.812;11.762;2023-08-30T12:27:46;22.90;91.00
22161;DHT22;49035;48.812;11.762;2023-08-30T12:30:13;23.00;90.50
22161;DHT22;49035;48.812;11.762;2023-08-30T12:32:40;23.20;88.40
22161;DHT22;49035;48.812;11.762;2023-08-30T12:35:05;23.30;90.50
22161;DHT22;49035;48.812;11.762;2023-08-30T12:37:31;23.30;89.50
22161;DHT22;49035;48.812;11.762;2023-08-30T12:39:56;23.40;91.30
22161;DHT22;49035;48.812;11.762;2023-08-30T12:42:22;23.50;88.40
22161;DHT22;49035;48.812;11.762;2023-08-30T12:44:47;23.50;90.30
22161;DHT22;49035;48.812;11.762;2023-08-30T12:47:13;23.50;90.90
22161;DHT22;49035;48.812;11.762;2023-08-30T12:49:39;23.50;85.20
22161;DHT22;49035;48.812;11.762;2023-08-30T12:52:05;22.90;90.10
22161;DHT22;49035;48.812;11.762;2023-08-30T12:54:31;22.60;89.10
22161;DHT22;49035;48.812;11.762;2023-08-30T12:56:57;22.30;88.30
22161;DHT22;49035;48.812;11.762;2023-08-30T12:59:22;22.40;85.00
22161;DHT22;49035;48.812;11.762;2023-08-30T13:01:48;22.30;89.60
22161;DHT22;49035;48.812;11.762;2023-08-30T13:04:13;22.30;91.70
22161;DHT22;49035;48.812;11.762;2023-08-30T13:06:39;23.10;90.40
22161;DHT22;49035;48.812;11.762;2023-08-30T13:09:04;23.60;85.40
22161;DHT22;49035;48.812;11.762;2023-08-30T13:11:30;23.20;82.60
22161;DHT22;49035;48.812;11.762;2023-08-30T13:13:58;22.80;87.60
22161;DHT22;49035;48.812;11.762;2023-08-30T13:16:24;22.90;89.30
22161;DHT22;49035;48.812;11.762;2023-08-30T13:18:50;23.30;84.80
22161;DHT22;49035;48.812;11.762;2023-08-30T13:21:15;23.20;88.20
22161;DHT22;49035;48.812;11.762;2023-08-30T13:23:41;23.10;85.80
22161;DHT22;49035;48.812;11.762;2023-08-30T13:26:06;22.20;85.80
22161;DHT22;49035;48.812;11.762;2023-08-30T13:28:33;21.80;91.60
22161;DHT22;49035;48.812;11.762;2023-08-30T13:30:59;21.30;89.70
22161;DHT22;49035;48.812;11.762;2023-08-30T13:33:25;20.50;90.60
22161;DHT22;49035;48.812;11.762;2023-08-30T13:35:51;19.70;92.80
22161;DHT22;49035;48.812;11.762;2023-08-30T13:38:17;18.90;94.40
22161;DHT22;49035;48.812;11.762;2023-08-30T13:40:43;18.10;96.90
22161;DHT22;49035;48.812;11.762;2023-08-30T13:43:09;17.60;98.40
22161;DHT22;49035;48.812;11.762;2023-08-30T13:45:34;17.20;99.90
22161;DHT22;49035;48.812;11.762;2023-08-30T13:48:00;17.20;99.90
22161;DHT22;49035;48.812;11.762;2023-08-30T13:50:26;17.00;99.90
22161;DHT22;49035;48.812;11.762;2023-08-30T13:52:56;16.70;99.90
22161;DHT22;49035;48.812;11.762;2023-08-30T13:55:21;16.50;99.90
22161;DHT22;49035;48.812;11.762;2023-08-30T13:57:47;16.50;99.90
22161;DHT22;49035;48.812;11.762;2023-08-30T14:00:13;16.30;99.90
22161;DHT22;49035;48.812;11.762;2023-08-30T14:02:39;16.10;99.90
22161;DHT22;49035;48.812;11.762;2023-08-30T14:05:05;15.90;99.90
22161;DHT22;49035;48.812;11.762;2023-08-30T14:07:31;15.80;99.90
22161;DHT22;49035;48.812;11.762;2023-08-30T14:09:57;15.80;99.90
22161;DHT22;49035;48.812;11.762;2023-08-30T14:12:23;15.70;99.90
22161;DHT22;49035;48.812;11.762;2023-08-30T14:14:49;15.60;99.90
22161;DHT22;49035;48.812;11.762;2023-08-30T14:17:14;15.50;99.90
22161;DHT22;49035;48.812;11.762;2023-08-30T14:19:40;15.30;99.90
22161;DHT22;49035;48.812;11.762;2023-08-30T14:22:05;15.10;99.90
22161;DHT22;49035;48.812;11.762;2023-08-30T14:24:32;14.70;99.90
22161;DHT22;49035;48.812;11.762;2023-08-30T14:26:59;14.50;99.90
22161;DHT22;49035;48.812;11.762;2023-08-30T14:29:25;14.50;99.90
22161;DHT22;49035;48.812;11.762;2023-08-30T14:31:51;14.40;99.90
22161;DHT22;49035;48.812;11.762;2023-08-30T14:34:16;14.20;99.90
22161;DHT22;49035;48.812;11.762;2023-08-30T14:36:42;14.20;99.90
22161;DHT22;49035;48.812;11.762;2023-08-30T14:39:08;14.10;99.90
22161;DHT22;49035;48.812;11.762;2023-08-30T14:41:35;14.10;99.90
22161;DHT22;49035;48.812;11.762;2023-08-30T14:44:02;14.30;99.90
22161;DHT22;49035;48.812;11.762;2023-08-30T14:46:31;14.50;99.90
22161;DHT22;49035;48.812;11.762;2023-08-30T14:48:56;14.70;99.90
22161;DHT22;49035;48.812;11.762;2023-08-30T14:51:22;14.70;99.90
22161;DHT22;49035;48.812;11.762;2023-08-30T14:53:47;14.80;99.90
22161;DHT22;49035;48.812;11.762;2023-08-30T14:56:13;14.80;99.90
22161;DHT22;49035;48.812;11.762;2023-08-30T14:58:39;14.70;99.90
22161;DHT22;49035;48.812;11.762;2023-08-30T15:01:05;14.70;99.90
22161;DHT22;49035;48.812;11.762;2023-08-30T15:03:31;14.80;99.90
22161;DHT22;49035;48.812;11.762;2023-08-30T15:05:58;14.80;99.90
22161;DHT22;49035;48.812;11.762;2023-08-30T15:08:24;14.90;99.90
22161;DHT22;49035;48.812;11.762;2023-08-30T15:10:50;14.90;99.90